sensor_id;sensor_type;location;lat;lon;timestamp;pressure;altitude;pressure_sealevel;temperature;humidity
75747;BME280;64363;52.198;21.020;2023-01-28T20:10:19;101374.53;;;0.18;68.78
75747;BME280;64363;52.198;21.020;2023-01-28T20:12:45;101367.38;;;0.11;67.96
75747;BME280;64363;52.198;21.020;2023-01-28T20:15:10;101360.19;;;0.04;67.28
75747;BME280;64363;52.198;21.020;2023-01-28T20:17:36;101360.19;;;0.04;66.73
75747;BME280;64363;52.198;21.020;2023-01-28T20:20:02;101362.91;;;0.08;66.61
75747;BME280;64363;52.198;21.020;2023-01-28T20:22:30;101362.88;;;0.07;66.98
75747;BME280;64363;52.198;21.020;2023-01-28T20:24:55;101370.13;;;0.17;67.04
75747;BME280;64363;52.198;21.020;2023-01-28T20:27:23;101364.75;;;0.11;66.37
75747;BME280;64363;52.198;21.020;2023-01-28T20:29:49;101362.03;;;0.08;66.59
75747;BME280;64363;52.198;21.020;2023-01-28T20:32:15;101375.19;;;0.09;66.73
75747;BME280;64363;52.198;21.020;2023-01-28T20:34:41;101363.91;;;0.12;67.34
75747;BME280;64363;52.198;21.020;2023-01-28T20:37:07;101374.47;;;0.16;67.78
75747;BME280;64363;52.198;21.020;2023-01-28T20:39:35;101386.94;;;0.23;67.64
75747;BME280;64363;52.198;21.020;2023-01-28T20:42:02;101379.84;;;0.19;67.70
75747;BME280;64363;52.198;21.020;2023-01-28T20:44:27;101376.13;;;0.13;66.95
75747;BME280;64363;52.198;21.020;2023-01-28T20:46:57;101374.34;;;0.10;67.52
75747;BME280;64363;52.198;21.020;2023-01-28T20:49:23;101381.31;;;0.10;68.40
75747;BME280;64363;52.198;21.020;2023-01-28T20:51:49;101383.09;;;0.11;68.15
75747;BME280;64363;52.198;21.020;2023-01-28T20:54:14;101385.84;;;0.15;68.08
75747;BME280;64363;52.198;21.020;2023-01-28T20:56:42;101390.00;;;0.09;68.03
75747;BME280;64363;52.198;21.020;2023-01-28T20:59:08;101384.53;;;-0.01;68.80
75747;BME280;64363;52.198;21.020;2023-01-28T21:01:35;101388.09;;;0.02;68.85
75747;BME280;64363;52.198;21.020;2023-01-28T21:04:01;101388.09;;;0.02;68.46
75747;BME280;64363;52.198;21.020;2023-01-28T21:06:28;101390.69;;;0.00;68.65
75747;BME280;64363;52.198;21.020;2023-01-28T21:08:53;101393.19;;;-0.05;69.02
75747;BME280;64363;52.198;21.020;2023-01-28T21:11:20;101400.31;;;0.01;69.63
75747;BME280;64363;52.198;21.020;2023-01-28T21:13:46;101391.84;;;0.11;68.31
75747;BME280;64363;52.198;21.020;2023-01-28T21:16:12;101402.13;;;0.04;67.50
75747;BME280;64363;52.198;21.020;2023-01-28T21:18:38;101403.69;;;-0.03;68.72
75747;BME280;64363;52.198;21.020;2023-01-28T21:21:26;101398.91;;;-0.18;69.09
75747;BME280;64363;52.198;21.020;2023-01-28T21:23:50;101396.28;;;-0.18;69.35
75747;BME280;64363;52.198;21.020;2023-01-28T21:26:19;101392.91;;;-0.14;69.57
75747;BME280;64363;52.198;21.020;2023-01-28T21:28:45;101392.84;;;-0.17;68.48
75747;BME280;64363;52.198;21.020;2023-01-28T21:33:40;101372.53;;;-0.24;68.63
75747;BME280;64363;52.198;21.020;2023-01-28T21:36:10;101370.16;;;-0.15;68.73
75747;BME280;64363;52.198;21.020;2023-01-28T21:38:37;101356.94;;;-0.19;68.75
75747;BME280;64363;52.198;21.020;2023-01-28T21:41:03;101362.91;;;-0.25;67.37
75747;BME280;64363;52.198;21.020;2023-01-28T21:43:29;101375.06;;;-0.27;67.97
75747;BME280;64363;52.198;21.020;2023-01-28T21:45:56;101368.84;;;-0.30;67.56
75747;BME280;64363;52.198;21.020;2023-01-28T21:48:22;101367.94;;;-0.32;67.33
75747;BME280;64363;52.198;21.020;2023-01-28T21:50:49;101362.66;;;-0.34;67.24
75747;BME280;64363;52.198;21.020;2023-01-28T21:53:39;101365.25;;;-0.34;67.80
75747;BME280;64363;52.198;21.020;2023-01-28T21:56:07;101362.72;;;-0.31;67.99
75747;BME280;64363;52.198;21.020;2023-01-28T21:58:34;101365.31;;;-0.32;66.84
75747;BME280;64363;52.198;21.020;2023-01-28T22:01:18;101362.66;;;-0.34;67.29
75747;BME280;64363;52.198;21.020;2023-01-28T22:03:44;101355.69;;;-0.32;67.30
75747;BME280;64363;52.198;21.020;2023-01-28T22:06:10;101348.31;;;-0.47;66.13
75747;BME280;64363;52.198;21.020;2023-01-28T22:08:35;101357.94;;;-0.45;66.51
75747;BME280;64363;52.198;21.020;2023-01-28T22:11:03;101344.22;;;-0.37;66.75
75747;BME280;64363;52.198;21.020;2023-01-28T22:13:29;101334.63;;;-0.36;66.34
75747;BME280;64363;52.198;21.020;2023-01-28T22:15:55;101335.34;;;-0.42;65.48
75747;BME280;64363;52.198;21.020;2023-01-28T22:18:21;101338.03;;;-0.39;66.27
75747;BME280;64363;52.198;21.020;2023-01-28T22:20:57;101331.78;;;-0.44;65.46
75747;BME280;64363;52.198;21.020;2023-01-28T22:23:23;101342.16;;;-0.49;66.26
75747;BME280;64363;52.198;21.020;2023-01-28T22:25:49;101331.91;;;-0.39;65.71
75747;BME280;64363;52.198;21.020;2023-01-28T22:28:15;101320.53;;;-0.40;66.31
75747;BME280;64363;52.198;21.020;2023-01-28T22:30:40;101329.16;;;-0.44;66.58
75747;BME280;64363;52.198;21.020;2023-01-28T22:33:06;101338.72;;;-0.46;67.16
75747;BME280;64363;52.198;21.020;2023-01-28T22:35:32;101331.44;;;-0.56;67.16
75747;BME280;64363;52.198;21.020;2023-01-28T22:37:57;101325.44;;;-0.52;67.48
75747;BME280;64363;52.198;21.020;2023-01-28T22:40:23;101333.22;;;-0.55;67.34
75747;BME280;64363;52.198;21.020;2023-01-28T22:42:49;101336.69;;;-0.56;66.75
75747;BME280;64363;52.198;21.020;2023-01-28T22:45:15;101339.63;;;-0.44;66.74
75747;BME280;64363;52.198;21.020;2023-01-28T22:47:42;101342.94;;;-0.51;67.16
75747;BME280;64363;52.198;21.020;2023-01-28T22:50:09;101344.66;;;-0.53;67.30
75747;BME280;64363;52.198;21.020;2023-01-28T22:52:35;101337.53;;;-0.57;66.63
75747;BME280;64363;52.198;21.020;2023-01-28T22:55:01;101355.00;;;-0.56;66.80
75747;BME280;64363;52.198;21.020;2023-01-28T22:57:27;101358.66;;;-0.51;67.44
75747;BME280;64363;52.198;21.020;2023-01-28T22:59:53;101351.41;;;-0.61;67.38
75747;BME280;64363;52.198;21.020;2023-01-28T23:02:19;101362.88;;;-0.56;68.11
75747;BME280;64363;52.198;21.020;2023-01-28T23:04:44;101372.22;;;-0.64;67.50
75747;BME280;64363;52.198;21.020;2023-01-28T23:07:11;101373.09;;;-0.65;67.15
75747;BME280;64363;52.198;21.020;2023-01-28T23:09:38;101370.47;;;-0.65;67.43
75747;BME280;64363;52.198;21.020;2023-01-28T23:12:04;101371.59;;;-0.57;67.73
75747;BME280;64363;52.198;21.020;2023-01-28T23:14:32;101379.25;;;-0.63;68.12
75747;BME280;64363;52.198;21.020;2023-01-28T23:17:20;101374.69;;;-0.70;67.82
75747;BME280;64363;52.198;21.020;2023-01-28T23:20:05;101382.63;;;-0.67;68.65
75747;BME280;64363;52.198;21.020;2023-01-28T23:22:50;101377.44;;;-0.66;67.36
75747;BME280;64363;52.198;21.020;2023-01-28T23:25:34;101363.63;;;-0.60;67.22
75747;BME280;64363;52.198;21.020;2023-01-28T23:28:00;101364.16;;;-0.72;68.30
75747;BME280;64363;52.198;21.020;2023-01-28T23:30:26;101355.50;;;-0.69;68.14
75747;BME280;64363;52.198;21.020;2023-01-28T23:32:55;101350.53;;;-0.60;68.09
75747;BME280;64363;52.198;21.020;2023-01-28T23:35:22;101360.09;;;-0.62;68.63
75747;BME280;64363;52.198;21.020;2023-01-28T23:37:50;101356.50;;;-0.64;68.54
75747;BME280;64363;52.198;21.020;2023-01-28T23:40:16;101351.41;;;-0.61;68.36
75747;BME280;64363;52.198;21.020;2023-01-28T23:42:47;101362.66;;;-0.64;67.78
75747;BME280;64363;52.198;21.020;2023-01-28T23:45:14;101355.69;;;-0.63;68.08
75747;BME280;64363;52.198;21.020;2023-01-28T23:47:39;101353.16;;;-0.60;67.31
75747;BME280;64363;52.198;21.020;2023-01-28T23:50:05;101346.38;;;-0.54;67.04
75747;BME280;64363;52.198;21.020;2023-01-28T23:52:31;101349.88;;;-0.53;67.58
75747;BME280;64363;52.198;21.020;2023-01-28T23:54:57;101348.44;;;-0.42;67.44
75747;BME280;64363;52.198;21.020;2023-01-28T23:57:23;101346.72;;;-0.41;67.14
75747;BME280;64363;52.198;21.020;2023-01-28T23:59:49;101330.59;;;-0.55;67.31
